Terminal Aerodrome Forecast
Issued by NWS

Home | Current Version | Previous Version | Text Only | Print | Product List | Glossary On
Versions: 1 2 3 4 5 6 7 8 9 10 11 12
080
FTUS44 KTSA 031120
TAFMLC
TAF
KMLC 031120Z 0312/0412 08004KT 6SM -RA OVC060
      TEMPO 0314/0316 4SM RA OVC025
     FM031600 07008KT 4SM -RA OVC012
      TEMPO 0316/0319 2SM -RA BR OVC007
     FM031900 08004KT 2SM -RA BR OVC007
     FM040800 08003KT 3SM -RA BR OVC003=

USA.gov is the U.S. government's official web portal to all federal, state and local government web resources and services.